Airfield :
LOGIN :

Register | Disclaimer

   EN    FR    IT 

 










Legend :    VFR   Marginal VFR   IFR   Intensive IFR   Very Intensive IFR
Visi :
Ceiling :
>= 8 km
>= 3000ft
5 to 8 km
1000 to 3000 ft
1500m to 5 km
500 to 1000 ft
800 to 1500m
200 to 500 ft
< 800m
< 200 ft
Symbols :   Thunderstorms  Fog  Heavy snow  Heavy precipitations  Wind > 20 kt
SIGMETs :     Misc.  Thunderstorms  Icing  Turbulence  Mountain Waves  Volcanic Ashes







- Airport Elevation : 28 ft
- IATA code : SOZ
- Download approach charts


LFKS - Solenzara

CURRENT METAR :
  • 160630Z AUTO 36004KT 320V060 CAVOK 25/21 Q1013

EXPIRED METARs :
  • 160600Z AUTO 24004KT 200V280 CAVOK 24/20 Q1012
  • 160530Z AUTO 30003KT 270V340 CAVOK 24/20 Q1013
  • 160500Z AUTO 28004KT 200V330 9999 FEW074 SCT220 24/19 Q1013
  • 160430Z AUTO 27005KT 220V300 CAVOK 23/17 Q1014
  • 160400Z AUTO 28005KT CAVOK 23/17 Q1013

TAF TAF LFKS
Valid from the 15 at 09:00 until the 16 at 09:00 UTC


150800Z 1509/1609 13005KT CAVOK
TEMPO 1608/1609 21030G45KT
No reported NOTAMs for that airfield.
1 SIGMET reported for the Marseille FIR (LFMM) :
 
Embedded thunderstorms
LFMM SIGMET 1 VALID 160555/160800 LFPW
LFMM MARSEILLE FIR/UIR EMBD TS OBS AT 0555Z WI N4215 E00330 - N4215 E00230 - N4345 E00245 - N4345 E00445 - N4230 E00400 - N4215 E00330 TOP FL380 MOV NE 20KT NC=



MET'MAP, your aeronautical weather chart ! - Copyright ORBIFLY December 2007 - Disclaimer

ORBIFLY MET'MAP TEAM :

Programming & Development : Alexandra Zaïnal
Concept & Development : Baudouin d'Aumeries
Co-Development & Prog : Marc-Olivier Méhu
Technical & hardware support : Manuel Goepfert

Contact : metmap@orbifly.com




SOURCES & CREDITS :

   NOAA